createdAt,value
2019-05-10T00:00:07.007Z,9.96
2019-05-10T00:01:06.863Z,9.97
2019-05-10T00:02:06.853Z,9.89
2019-05-10T00:03:06.840Z,9.91
2019-05-10T00:04:06.829Z,9.93
2019-05-10T00:05:06.818Z,9.79
2019-05-10T00:06:06.868Z,9.81
2019-05-10T00:07:06.795Z,9.66
2019-05-10T00:08:06.787Z,9.71
2019-05-10T00:09:06.774Z,9.75
2019-05-10T00:10:06.762Z,9.75
2019-05-10T00:11:06.756Z,9.68
2019-05-10T00:12:06.803Z,9.70
2019-05-10T00:13:06.727Z,9.76
2019-05-10T00:14:06.716Z,9.64
2019-05-10T00:15:06.704Z,9.70
2019-05-10T00:16:06.693Z,9.85
2019-05-10T00:17:06.681Z,9.85
2019-05-10T00:18:06.730Z,9.75
2019-05-10T00:19:06.665Z,9.82
2019-05-10T00:20:06.654Z,9.82
2019-05-10T00:21:06.635Z,9.73
2019-05-10T00:22:06.623Z,9.79
2019-05-10T00:23:06.614Z,9.76
2019-05-10T00:24:06.711Z,9.81
2019-05-10T00:25:06.590Z,9.81
2019-05-10T00:26:06.578Z,9.78
2019-05-10T00:27:06.569Z,9.88
2019-05-10T00:28:06.561Z,9.89
2019-05-10T00:29:06.544Z,9.81
2019-05-10T00:30:06.602Z,9.91
2019-05-10T00:31:06.520Z,9.91
2019-05-10T00:32:06.512Z,9.79
2019-05-10T00:33:06.499Z,9.93
2019-05-10T00:34:06.491Z,9.86
2019-05-10T00:35:06.477Z,9.91
2019-05-10T00:36:06.567Z,9.88
2019-05-10T00:37:06.454Z,9.89
2019-05-10T00:38:06.441Z,9.82
2019-05-10T00:39:06.441Z,9.85
2019-05-10T00:40:06.464Z,9.82
2019-05-10T00:41:06.406Z,9.85
2019-05-10T00:42:06.490Z,9.71
2019-05-10T00:43:06.384Z,9.82
2019-05-10T00:44:06.374Z,9.73
2019-05-10T00:45:06.362Z,9.67
2019-05-10T00:46:06.351Z,9.67
2019-05-10T00:47:06.339Z,9.63
2019-05-10T00:48:06.402Z,9.66
2019-05-10T00:49:06.316Z,9.60
2019-05-10T00:50:06.304Z,9.43
2019-05-10T00:51:06.293Z,9.45
2019-05-10T00:52:06.282Z,9.34
2019-05-10T00:53:06.269Z,9.35
2019-05-10T00:54:06.368Z,9.21
2019-05-10T00:55:18.477Z,9.18
2019-05-10T00:56:07.233Z,9.18
2019-05-10T00:57:06.223Z,9.10
2019-05-10T00:58:06.211Z,9.09
2019-05-10T00:59:06.202Z,9.09
2019-05-10T01:00:06.265Z,9.25
2019-05-10T01:01:06.179Z,9.23
2019-05-10T01:02:06.166Z,9.32
2019-05-10T01:03:06.161Z,9.35
2019-05-10T01:04:06.142Z,9.39
2019-05-10T01:05:06.133Z,9.38
2019-05-10T01:06:06.210Z,9.46
2019-05-10T01:07:06.110Z,9.46
2019-05-10T01:08:06.097Z,9.49
2019-05-10T01:09:06.092Z,9.43
2019-05-10T01:10:06.075Z,9.56
2019-05-10T01:11:06.065Z,9.56
2019-05-10T01:12:06.120Z,9.61
2019-05-10T01:13:06.042Z,9.66
2019-05-10T01:14:06.030Z,9.70
2019-05-10T01:15:06.017Z,9.67
2019-05-10T01:16:06.005Z,9.71
2019-05-10T01:17:05.995Z,9.67
2019-05-10T01:18:06.053Z,9.67
2019-05-10T01:19:05.972Z,9.66
2019-05-10T01:20:05.960Z,9.68
2019-05-10T01:21:05.947Z,9.61
2019-05-10T01:22:05.936Z,9.58
2019-05-10T01:23:05.924Z,9.60
2019-05-10T01:24:05.997Z,9.53
2019-05-10T01:25:05.904Z,9.58
2019-05-10T01:26:05.890Z,9.64
2019-05-10T01:27:05.878Z,9.70
2019-05-10T01:28:05.909Z,9.68
2019-05-10T01:29:05.855Z,9.75
2019-05-10T01:30:05.913Z,9.73
2019-05-10T01:31:05.832Z,9.70
2019-05-10T01:32:05.821Z,9.68
2019-05-10T01:33:05.809Z,9.68
2019-05-10T01:34:05.800Z,9.66
2019-05-10T01:35:05.787Z,9.68
2019-05-10T01:36:05.844Z,9.67
2019-05-10T01:37:05.763Z,9.66
2019-05-10T01:38:05.752Z,9.70
2019-05-10T01:39:05.739Z,9.67
2019-05-10T01:40:05.728Z,9.66
2019-05-10T01:41:05.725Z,9.67
2019-05-10T01:42:05.768Z,9.73
2019-05-10T01:43:05.695Z,9.73
2019-05-10T01:44:05.745Z,9.76
2019-05-10T01:45:05.673Z,9.93
2019-05-10T01:46:05.659Z,9.97
2019-05-10T01:47:05.648Z,10.10
2019-05-10T01:48:05.710Z,10.24
2019-05-10T01:49:05.624Z,10.19
2019-05-10T01:50:05.617Z,10.30
2019-05-10T01:51:05.601Z,10.33
2019-05-10T01:52:05.591Z,10.37
2019-05-10T01:53:05.597Z,10.42
2019-05-10T01:54:05.638Z,10.34
2019-05-10T01:55:05.555Z,10.39
2019-05-10T01:56:05.548Z,10.34
2019-05-10T01:57:05.550Z,10.32
2019-05-10T01:58:05.521Z,10.30
2019-05-10T01:59:05.510Z,10.34
2019-05-10T02:00:05.575Z,10.39
2019-05-10T02:01:05.493Z,10.34
2019-05-10T02:02:05.485Z,10.33
2019-05-10T02:03:05.471Z,10.32
2019-05-10T02:04:05.455Z,10.26
2019-05-10T02:05:05.442Z,10.36
2019-05-10T02:06:05.512Z,10.25
2019-05-10T02:07:05.487Z,10.25
2019-05-10T02:08:05.426Z,10.24
2019-05-10T02:09:05.397Z,10.18
2019-05-10T02:10:05.391Z,10.24
2019-05-10T02:11:05.374Z,10.36
2019-05-10T02:12:05.432Z,10.43
2019-05-10T02:13:05.352Z,10.56
2019-05-10T02:14:05.341Z,10.56
2019-05-10T02:15:05.329Z,10.58
2019-05-10T02:16:05.317Z,10.59
2019-05-10T02:17:05.306Z,10.59
2019-05-10T02:18:05.369Z,10.53
2019-05-10T02:19:05.284Z,10.60
2019-05-10T02:20:05.273Z,10.55
2019-05-10T02:21:05.263Z,10.58
2019-05-10T02:22:05.253Z,10.53
2019-05-10T02:23:05.238Z,10.53
2019-05-10T02:24:05.293Z,10.55
2019-05-10T02:25:05.216Z,10.53
2019-05-10T02:26:09.364Z,10.58
2019-05-10T02:27:05.192Z,10.65
2019-05-10T02:28:05.185Z,10.66
2019-05-10T02:29:05.171Z,10.68
2019-05-10T02:30:05.232Z,10.63
2019-05-10T02:31:05.153Z,10.62
2019-05-10T02:32:05.138Z,10.47
2019-05-10T02:33:05.130Z,10.56
2019-05-10T02:34:05.115Z,10.55
2019-05-10T02:35:05.103Z,10.58
2019-05-10T02:36:05.159Z,10.62
2019-05-10T02:37:05.079Z,10.66
2019-05-10T02:38:05.069Z,10.62
2019-05-10T02:39:05.058Z,10.59
2019-05-10T02:40:05.045Z,10.53
2019-05-10T02:41:05.047Z,10.53
2019-05-10T02:42:05.086Z,10.53
2019-05-10T02:43:05.013Z,10.58
2019-05-10T02:44:05.002Z,10.55
2019-05-10T02:45:05.004Z,10.56
2019-05-10T02:46:04.978Z,10.51
2019-05-10T02:47:04.973Z,10.58
2019-05-10T02:48:05.022Z,10.42
2019-05-10T02:49:04.951Z,10.46
2019-05-10T02:50:04.932Z,10.44
2019-05-10T02:51:04.932Z,10.59
2019-05-10T02:52:04.910Z,10.53
2019-05-10T02:53:04.899Z,10.52
2019-05-10T02:54:04.950Z,10.55
2019-05-10T02:55:04.875Z,10.62
2019-05-10T02:56:04.872Z,10.58
2019-05-10T02:57:04.861Z,10.62
2019-05-10T02:58:04.845Z,10.62
2019-05-10T02:59:04.829Z,10.59
2019-05-10T03:00:04.889Z,10.58
2019-05-10T03:01:04.819Z,10.51
2019-05-10T03:02:04.796Z,10.52
2019-05-10T03:03:04.785Z,10.52
2019-05-10T03:04:04.773Z,10.51
2019-05-10T03:05:04.760Z,10.40
2019-05-10T03:06:04.820Z,10.40
2019-05-10T03:07:04.740Z,10.39
2019-05-10T03:08:04.730Z,10.37
2019-05-10T03:09:04.715Z,10.33
2019-05-10T03:10:04.706Z,10.34
2019-05-10T03:11:04.695Z,10.40
2019-05-10T03:12:04.745Z,10.42
2019-05-10T03:13:04.680Z,10.42
2019-05-10T03:14:04.663Z,10.55
2019-05-10T03:15:04.653Z,10.59
2019-05-10T03:16:04.639Z,10.66
2019-05-10T03:17:04.625Z,10.58
2019-05-10T03:18:04.696Z,10.59
2019-05-10T03:19:04.605Z,10.63
2019-05-10T03:20:04.591Z,10.62
2019-05-10T03:21:04.580Z,10.58
2019-05-10T03:22:04.569Z,10.65
2019-05-10T03:23:04.557Z,10.66
2019-05-10T03:24:04.613Z,10.66
2019-05-10T03:25:04.534Z,10.63
2019-05-10T03:26:04.522Z,10.66
2019-05-10T03:27:04.512Z,10.63
2019-05-10T03:28:04.501Z,10.70
2019-05-10T03:29:04.486Z,10.56
2019-05-10T03:30:04.791Z,10.66
2019-05-10T03:31:04.465Z,10.51
2019-05-10T03:32:04.454Z,10.56
2019-05-10T03:33:04.454Z,10.51
2019-05-10T03:34:04.467Z,10.52
2019-05-10T03:35:04.420Z,10.56
2019-05-10T03:36:04.475Z,10.52
2019-05-10T03:37:04.401Z,10.53
2019-05-10T03:38:04.390Z,10.58
2019-05-10T03:39:04.378Z,10.43
2019-05-10T03:40:04.363Z,10.43
2019-05-10T03:41:04.351Z,10.40
2019-05-10T03:42:04.413Z,10.37
2019-05-10T03:43:04.327Z,10.42
2019-05-10T03:44:04.328Z,10.39
2019-05-10T03:45:04.305Z,10.51
2019-05-10T03:46:04.295Z,10.52
2019-05-10T03:47:04.282Z,10.56
2019-05-10T03:48:04.333Z,10.58
2019-05-10T03:49:04.259Z,10.66
2019-05-10T03:50:04.247Z,10.59
2019-05-10T03:51:04.236Z,10.65
2019-05-10T03:52:04.228Z,10.73
2019-05-10T03:53:04.215Z,10.63
2019-05-10T03:54:04.267Z,10.68
2019-05-10T03:55:04.200Z,10.68
2019-05-10T03:56:04.203Z,10.73
2019-05-10T03:57:13.113Z,10.70
2019-05-10T03:58:05.166Z,10.73
2019-05-10T03:59:04.144Z,10.73
2019-05-10T04:00:04.199Z,10.78
2019-05-10T04:01:04.124Z,10.74
2019-05-10T04:02:04.113Z,10.73
2019-05-10T04:03:04.097Z,10.74
2019-05-10T04:04:04.091Z,10.77
2019-05-10T04:05:04.074Z,10.80
2019-05-10T04:06:04.125Z,10.89
2019-05-10T04:07:04.070Z,10.78
2019-05-10T04:08:04.040Z,10.78
2019-05-10T04:09:04.029Z,10.80
2019-05-10T04:10:04.137Z,10.80
2019-05-10T04:11:04.005Z,10.84
2019-05-10T04:12:04.056Z,10.81
2019-05-10T04:13:03.983Z,10.83
2019-05-10T04:14:03.982Z,10.88
2019-05-10T04:15:03.961Z,10.94
2019-05-10T04:16:03.952Z,10.92
2019-05-10T04:17:03.936Z,10.94
2019-05-10T04:18:03.991Z,10.92
2019-05-10T04:19:03.915Z,10.96
2019-05-10T04:20:03.909Z,11.01
2019-05-10T04:21:03.890Z,10.95
2019-05-10T04:22:03.880Z,10.99
2019-05-10T04:23:03.868Z,10.99
2019-05-10T04:24:03.925Z,11.07
2019-05-10T04:25:03.853Z,11.07
2019-05-10T04:26:03.836Z,11.10
2019-05-10T04:27:03.822Z,11.21
2019-05-10T04:28:03.813Z,11.19
2019-05-10T04:29:03.798Z,11.21
2019-05-10T04:30:03.876Z,11.14
2019-05-10T04:31:03.821Z,11.17
2019-05-10T04:32:03.777Z,11.21
2019-05-10T04:33:03.752Z,11.28
2019-05-10T04:34:03.755Z,11.29
2019-05-10T04:35:03.736Z,11.38
2019-05-10T04:36:03.784Z,11.54
2019-05-10T04:37:03.727Z,11.47
2019-05-10T04:38:03.699Z,11.53
2019-05-10T04:39:03.690Z,11.54
2019-05-10T04:40:03.671Z,11.56
2019-05-10T04:41:03.670Z,11.54
2019-05-10T04:42:03.709Z,11.47
2019-05-10T04:43:03.640Z,11.56
2019-05-10T04:44:03.623Z,11.56
2019-05-10T04:45:03.614Z,11.64
2019-05-10T04:46:03.602Z,11.59
2019-05-10T04:47:03.592Z,11.61
2019-05-10T04:48:03.646Z,11.54
2019-05-10T04:49:03.575Z,11.67
2019-05-10T04:50:03.566Z,11.64
2019-05-10T04:51:03.545Z,11.64
2019-05-10T04:52:03.532Z,11.64
2019-05-10T04:53:03.522Z,11.52
2019-05-10T04:54:03.569Z,11.64
2019-05-10T04:55:03.497Z,11.61
2019-05-10T04:56:03.490Z,11.65
2019-05-10T04:57:03.483Z,11.59
2019-05-10T04:58:03.464Z,11.52
2019-05-10T04:59:03.453Z,11.61
2019-05-10T05:00:03.512Z,11.53
2019-05-10T05:01:03.431Z,11.54
2019-05-10T05:02:03.423Z,11.57
2019-05-10T05:03:03.410Z,11.38
2019-05-10T05:04:03.439Z,11.44
2019-05-10T05:05:03.393Z,11.36
2019-05-10T05:06:03.436Z,11.36
2019-05-10T05:07:03.369Z,11.39
2019-05-10T05:08:06.320Z,11.32
2019-05-10T05:09:03.338Z,11.24
2019-05-10T05:10:03.381Z,11.21
2019-05-10T05:11:03.320Z,11.24
2019-05-10T05:12:03.375Z,11.20
2019-05-10T05:13:03.301Z,11.21
2019-05-10T05:14:03.291Z,11.02
2019-05-10T05:15:03.269Z,11.06
2019-05-10T05:16:03.257Z,11.03
2019-05-10T05:17:03.245Z,10.95
2019-05-10T05:18:03.298Z,10.84
2019-05-10T05:19:03.222Z,10.81
2019-05-10T05:20:03.211Z,10.86
2019-05-10T05:21:03.200Z,10.78
2019-05-10T05:22:03.190Z,10.74
2019-05-10T05:23:03.178Z,10.86
2019-05-10T05:24:03.247Z,10.94
2019-05-10T05:25:03.779Z,11.02
2019-05-10T05:26:03.142Z,11.11
2019-05-10T05:27:03.206Z,11.28
2019-05-10T05:28:07.910Z,11.41
2019-05-10T05:29:04.170Z,11.36
2019-05-10T05:30:03.096Z,11.57
2019-05-10T05:31:03.092Z,11.64
2019-05-10T05:32:03.633Z,11.75
2019-05-10T05:33:03.064Z,11.80
2019-05-10T05:34:04.982Z,11.96
2019-05-10T05:35:03.105Z,12.06
2019-05-10T05:36:03.028Z,12.21
2019-05-10T05:37:03.034Z,12.13
2019-05-10T05:38:03.005Z,12.34
2019-05-10T05:39:03.011Z,12.52
2019-05-10T05:40:02.982Z,12.74
2019-05-10T05:41:03.034Z,13.04
2019-05-10T05:42:02.960Z,13.27
2019-05-10T05:43:08.120Z,13.55
2019-05-10T05:44:03.944Z,13.61
2019-05-10T05:45:02.985Z,13.71
2019-05-10T05:46:02.912Z,13.87
2019-05-10T05:47:04.817Z,14.13
2019-05-10T05:48:02.891Z,14.37
2019-05-10T05:49:02.880Z,14.32
2019-05-10T05:50:02.868Z,14.04
2019-05-10T05:51:02.879Z,13.91
2019-05-10T05:52:02.851Z,14.01
2019-05-10T05:53:02.900Z,14.13
2019-05-10T05:54:04.217Z,14.28
2019-05-10T05:55:02.811Z,14.29
2019-05-10T05:56:08.879Z,14.12
2019-05-10T05:57:03.788Z,14.14
2019-05-10T05:58:05.000Z,14.21
2019-05-10T05:59:02.823Z,14.56
2019-05-10T06:00:03.951Z,14.56
2019-05-10T06:01:02.745Z,14.57
2019-05-10T06:02:07.373Z,14.74
2019-05-10T06:03:03.718Z,14.67
2019-05-10T06:04:06.375Z,14.39
2019-05-10T06:05:03.943Z,13.56
2019-05-10T06:06:02.685Z,13.95
2019-05-10T06:07:02.672Z,14.24
2019-05-10T06:08:02.722Z,14.34
2019-05-10T06:09:02.656Z,14.28
2019-05-10T06:10:02.636Z,14.42
2019-05-10T06:11:02.687Z,14.49
2019-05-10T06:12:07.367Z,14.43
2019-05-10T06:13:03.602Z,14.32
2019-05-10T06:14:09.991Z,14.20
2019-05-10T06:15:03.579Z,14.38
2019-05-10T06:16:06.454Z,14.53
2019-05-10T06:17:03.621Z,14.67
2019-05-10T06:18:03.579Z,14.84
2019-05-10T06:19:03.536Z,14.84
2019-05-10T06:20:05.931Z,15.01
2019-05-10T06:21:02.512Z,14.75
2019-05-10T06:22:04.781Z,14.87
2019-05-10T06:23:07.130Z,14.86
2019-05-10T06:24:07.375Z,14.80
2019-05-10T06:25:03.483Z,15.02
2019-05-10T06:26:02.453Z,14.98
2019-05-10T06:27:03.513Z,14.99
2019-05-10T06:28:02.431Z,15.20
2019-05-10T06:29:04.497Z,15.23
2019-05-10T06:30:02.407Z,15.23
2019-05-10T06:31:02.399Z,15.05
2019-05-10T06:32:02.390Z,14.99
2019-05-10T06:33:12.129Z,15.06
2019-05-10T06:34:03.423Z,15.11
2019-05-10T06:35:02.506Z,15.08
2019-05-10T06:36:02.338Z,15.20
2019-05-10T06:37:02.331Z,15.49
2019-05-10T06:38:02.319Z,15.23
2019-05-10T06:39:02.305Z,15.21
2019-05-10T06:40:02.386Z,15.24
2019-05-10T06:41:02.289Z,15.30
2019-05-10T06:42:02.274Z,15.24
2019-05-10T06:43:06.791Z,15.35
2019-05-10T06:44:03.251Z,15.42
2019-05-10T06:45:05.105Z,15.64
2019-05-10T06:46:03.290Z,15.72
2019-05-10T06:47:08.048Z,15.96
2019-05-10T06:48:03.201Z,15.56
2019-05-10T06:49:08.300Z,15.42
2019-05-10T06:50:03.181Z,15.06
2019-05-10T06:51:02.865Z,15.43
2019-05-10T06:52:03.216Z,14.75
2019-05-10T06:53:07.559Z,14.95
2019-05-10T06:54:03.141Z,15.09
2019-05-10T06:55:02.125Z,14.42
2019-05-10T06:56:02.108Z,14.47
2019-05-10T06:57:02.135Z,13.94
2019-05-10T06:58:02.148Z,14.49
2019-05-10T06:59:13.038Z,14.86
2019-05-10T07:00:06.419Z,15.06
2019-05-10T07:01:02.053Z,15.41
2019-05-10T07:02:02.042Z,15.56
2019-05-10T07:03:02.030Z,15.84
2019-05-10T07:04:02.079Z,16.23
2019-05-10T07:05:02.012Z,16.27
2019-05-10T07:06:02.000Z,16.07
2019-05-10T07:07:01.986Z,15.96
2019-05-10T07:08:14.038Z,16.23
2019-05-10T07:09:03.027Z,15.67
2019-05-10T07:10:10.323Z,15.85
2019-05-10T07:11:02.938Z,16.26
2019-05-10T07:12:01.931Z,15.86
2019-05-10T07:13:03.555Z,15.05
2019-05-10T07:14:01.901Z,15.05
2019-05-10T07:15:03.227Z,15.88
2019-05-10T07:16:01.882Z,15.61
2019-05-10T07:17:02.978Z,15.26
2019-05-10T07:18:01.855Z,15.67
2019-05-10T07:19:02.287Z,15.99
2019-05-10T07:20:01.833Z,16.44
2019-05-10T07:21:06.697Z,16.62
2019-05-10T07:22:02.807Z,16.11
2019-05-10T07:23:06.107Z,16.99
2019-05-10T07:24:02.786Z,17.25
2019-05-10T07:25:04.526Z,17.25
2019-05-10T07:26:01.764Z,17.50
2019-05-10T07:27:02.850Z,17.55
2019-05-10T07:28:01.739Z,17.50
2019-05-10T07:29:01.728Z,17.38
2019-05-10T07:30:01.720Z,17.62
2019-05-10T07:31:01.704Z,17.74
2019-05-10T07:32:01.693Z,18.02
2019-05-10T07:33:02.048Z,17.82
2019-05-10T07:34:01.673Z,18.00
2019-05-10T07:35:01.667Z,18.39
2019-05-10T07:36:01.656Z,18.59
2019-05-10T07:37:02.055Z,18.55
2019-05-10T07:38:01.631Z,18.82
2019-05-10T07:39:02.688Z,18.59
2019-05-10T07:40:03.505Z,17.54
2019-05-10T07:41:01.590Z,18.00
2019-05-10T07:42:06.664Z,18.42
2019-05-10T07:43:02.566Z,18.09
2019-05-10T07:44:08.094Z,18.27
2019-05-10T07:45:02.607Z,18.10
2019-05-10T07:46:06.392Z,17.43
2019-05-10T07:47:02.523Z,16.63
2019-05-10T07:48:02.342Z,16.58
2019-05-10T07:49:02.497Z,16.70
2019-05-10T07:50:03.911Z,16.23
2019-05-10T07:51:02.536Z,15.85
2019-05-10T07:52:03.089Z,15.68
2019-05-10T07:53:01.453Z,15.49
2019-05-10T07:54:04.681Z,15.26
2019-05-10T07:55:01.443Z,15.11
2019-05-10T07:56:06.177Z,15.17
2019-05-10T07:57:02.470Z,15.24
2019-05-10T07:58:05.019Z,15.13
2019-05-10T07:59:02.389Z,15.03
2019-05-10T08:00:03.616Z,14.84
2019-05-10T08:01:01.366Z,14.80
2019-05-10T08:02:05.770Z,14.81
2019-05-10T08:03:15.134Z,14.65
2019-05-10T08:04:02.326Z,14.62
2019-05-10T08:05:04.949Z,14.64
2019-05-10T08:06:02.306Z,14.52
2019-05-10T08:07:01.293Z,14.47
2019-05-10T08:08:01.283Z,14.65
2019-05-10T08:09:06.295Z,14.72
2019-05-10T08:10:04.745Z,14.88
2019-05-10T08:11:01.251Z,14.99
2019-05-10T08:12:05.144Z,15.51
2019-05-10T08:13:03.530Z,15.43
2019-05-10T08:14:06.075Z,15.45
2019-05-10T08:15:02.265Z,15.30
2019-05-10T08:16:05.351Z,15.20
2019-05-10T08:17:06.093Z,15.01
2019-05-10T08:18:01.180Z,14.93
2019-05-10T08:19:02.401Z,14.80
2019-05-10T08:20:01.145Z,14.67
2019-05-10T08:21:03.371Z,14.52
2019-05-10T08:22:04.462Z,14.50
2019-05-10T08:23:02.816Z,14.35
2019-05-10T08:24:05.568Z,14.25
2019-05-10T08:25:02.376Z,14.21
2019-05-10T08:26:04.463Z,14.21
2019-05-10T08:27:11.221Z,14.21
2019-05-10T08:28:05.318Z,14.25
2019-05-10T08:29:02.082Z,14.34
2019-05-10T08:30:25.510Z,14.39
2019-05-10T08:31:02.441Z,14.44
2019-05-10T08:32:03.015Z,14.60
2019-05-10T08:33:09.465Z,14.64
2019-05-10T08:34:02.267Z,14.71
2019-05-10T08:35:05.073Z,14.78
2019-05-10T08:36:04.975Z,14.67
2019-05-10T08:37:02.576Z,14.75
2019-05-10T08:38:02.291Z,14.94
2019-05-10T08:39:10.021Z,15.17
2019-05-10T08:40:03.197Z,15.36
2019-05-10T08:41:02.695Z,15.84
2019-05-10T08:42:09.024Z,16.48
2019-05-10T08:43:07.165Z,16.37
2019-05-10T08:44:04.810Z,15.81
2019-05-10T08:45:05.403Z,15.86
2019-05-10T08:46:02.610Z,15.64
2019-05-10T08:47:02.299Z,15.67
2019-05-10T08:48:06.920Z,15.66
2019-05-10T08:49:02.232Z,15.76
2019-05-10T08:50:18.712Z,16.15
2019-05-10T08:51:04.022Z,16.09
2019-05-10T08:52:02.891Z,16.06
2019-05-10T08:53:02.340Z,16.09
2019-05-10T08:54:01.933Z,16.06
2019-05-10T08:55:02.700Z,16.09
2019-05-10T08:56:02.274Z,16.11
2019-05-10T08:57:05.227Z,16.12
2019-05-10T08:58:02.905Z,15.93
2019-05-10T08:59:03.686Z,15.63
2019-05-10T09:00:07.118Z,15.56
2019-05-10T09:01:15.854Z,15.36
2019-05-10T09:02:02.262Z,15.24
2019-05-10T09:03:09.145Z,15.26
2019-05-10T09:04:06.602Z,15.20
2019-05-10T09:05:02.640Z,15.31
2019-05-10T09:06:03.461Z,15.24
2019-05-10T09:07:02.819Z,15.51
2019-05-10T09:08:04.855Z,15.59
2019-05-10T09:09:03.579Z,15.66
2019-05-10T09:10:02.224Z,15.84
2019-05-10T09:11:05.874Z,15.92
2019-05-10T09:12:04.199Z,16.20
2019-05-10T09:13:03.235Z,16.11
2019-05-10T09:14:00.528Z,16.15
2019-05-10T09:15:06.377Z,16.11
2019-05-10T09:16:02.462Z,15.94
2019-05-10T09:17:04.202Z,15.96
2019-05-10T09:18:04.144Z,16.04
2019-05-10T09:19:02.581Z,15.84
2019-05-10T09:20:02.672Z,15.74
2019-05-10T09:21:08.543Z,15.49
2019-05-10T09:22:02.045Z,15.70
2019-05-10T09:23:02.425Z,15.74
2019-05-10T09:24:03.420Z,15.72
2019-05-10T09:25:01.855Z,15.97
2019-05-10T09:26:03.655Z,15.86
2019-05-10T09:27:01.821Z,16.11
2019-05-10T09:28:02.305Z,16.04
2019-05-10T09:29:01.743Z,16.27
2019-05-10T09:30:02.734Z,16.31
2019-05-10T09:31:15.249Z,16.53
2019-05-10T09:32:06.196Z,16.99
2019-05-10T09:33:08.443Z,17.53
2019-05-10T09:34:02.506Z,18.24
2019-05-10T09:35:07.546Z,18.28
2019-05-10T09:36:02.936Z,17.59
2019-05-10T09:37:02.779Z,17.15
2019-05-10T09:38:01.965Z,17.50
2019-05-10T09:39:00.249Z,18.12
2019-05-10T09:40:05.460Z,18.74
2019-05-10T09:41:02.498Z,19.42
2019-05-10T09:42:06.180Z,19.13
2019-05-10T09:43:07.437Z,18.29
2019-05-10T09:44:02.990Z,18.74
2019-05-10T09:45:02.890Z,18.52
2019-05-10T09:46:02.530Z,18.28
2019-05-10T09:47:01.906Z,18.34
2019-05-10T09:48:02.475Z,18.24
2019-05-10T09:49:05.937Z,17.62
2019-05-10T09:50:02.279Z,17.17
2019-05-10T09:51:03.417Z,16.93
2019-05-10T09:52:04.496Z,16.92
2019-05-10T09:53:01.155Z,16.80
2019-05-10T09:54:00.496Z,16.88
2019-05-10T09:55:04.073Z,16.99
2019-05-10T09:56:03.119Z,17.41
2019-05-10T09:57:00.042Z,17.40
2019-05-10T09:58:00.030Z,17.50
2019-05-10T09:59:00.085Z,18.06
2019-05-10T10:00:00.007Z,18.92
2019-05-10T10:01:14.036Z,19.02
2019-05-10T10:02:05.110Z,19.63
2019-05-10T10:03:01.846Z,20.08
2019-05-10T10:04:02.088Z,20.58
2019-05-10T10:05:00.019Z,20.84
2019-05-10T10:06:05.487Z,21.23
2019-05-10T10:07:00.926Z,21.81
2019-05-10T10:08:03.725Z,21.85
2019-05-10T10:09:01.170Z,21.92
2019-05-10T10:09:59.894Z,21.19
2019-05-10T10:11:10.156Z,19.47
2019-05-10T10:12:03.024Z,18.28
2019-05-10T10:13:08.476Z,17.87
2019-05-10T10:14:02.171Z,17.51
2019-05-10T10:14:59.838Z,17.11
2019-05-10T10:16:04.057Z,17.06
2019-05-10T10:17:03.253Z,16.81
2019-05-10T10:17:59.805Z,16.67
2019-05-10T10:18:59.792Z,16.98
2019-05-10T10:19:59.781Z,17.17
2019-05-10T10:20:59.770Z,17.51
2019-05-10T10:21:59.761Z,18.50
2019-05-10T10:22:59.810Z,19.17
2019-05-10T10:24:00.377Z,18.52
2019-05-10T10:25:00.587Z,18.33
2019-05-10T10:25:59.713Z,17.84
2019-05-10T10:26:59.705Z,17.28
2019-05-10T10:27:59.694Z,16.85
2019-05-10T10:29:00.239Z,16.63
2019-05-10T10:29:59.668Z,16.55
2019-05-10T10:31:05.141Z,16.41
2019-05-10T10:32:00.645Z,16.77
2019-05-10T10:32:59.634Z,18.28
2019-05-10T10:34:02.650Z,18.50
2019-05-10T10:34:59.671Z,18.92
2019-05-10T10:36:04.944Z,19.65
2019-05-10T10:37:00.589Z,19.13
2019-05-10T10:38:03.106Z,18.12
2019-05-10T10:39:00.567Z,17.41
2019-05-10T10:40:05.188Z,17.17
2019-05-10T10:41:00.608Z,17.57
2019-05-10T10:42:02.363Z,17.50
2019-05-10T10:43:00.551Z,17.40
2019-05-10T10:43:59.520Z,17.84
2019-05-10T10:44:59.498Z,18.68
2019-05-10T10:45:59.491Z,19.15
2019-05-10T10:46:59.545Z,19.94
2019-05-10T10:48:02.425Z,20.81
2019-05-10T10:49:00.455Z,20.65
2019-05-10T10:50:03.015Z,20.20
2019-05-10T10:51:00.428Z,18.82
2019-05-10T10:51:59.419Z,18.94
2019-05-10T10:52:59.471Z,19.79
2019-05-10T10:53:59.400Z,19.63
2019-05-10T10:54:59.385Z,19.28
2019-05-10T10:56:03.499Z,18.64
2019-05-10T10:56:59.698Z,18.09
2019-05-10T10:57:59.351Z,19.08
2019-05-10T10:58:59.406Z,18.87
2019-05-10T10:59:59.564Z,19.54
2019-05-10T11:00:59.318Z,18.70
2019-05-10T11:02:27.914Z,18.03
2019-05-10T11:03:00.295Z,17.70
2019-05-10T11:04:03.525Z,17.74
2019-05-10T11:05:00.389Z,17.63
2019-05-10T11:05:59.263Z,17.73
2019-05-10T11:07:09.885Z,17.67
2019-05-10T11:08:01.054Z,17.84
2019-05-10T11:09:01.606Z,18.04
2019-05-10T11:10:13.264Z,17.97
2019-05-10T11:11:00.628Z,18.03
2019-05-10T11:12:00.928Z,17.57
2019-05-10T11:13:04.552Z,17.20
2019-05-10T11:14:06.960Z,16.99
2019-05-10T11:15:01.082Z,17.00
2019-05-10T11:16:09.945Z,16.88
2019-05-10T11:17:01.150Z,16.95
2019-05-10T11:18:00.488Z,17.03
2019-05-10T11:19:03.890Z,17.20
2019-05-10T11:20:00.612Z,17.18
2019-05-10T11:21:01.862Z,16.95
2019-05-10T11:22:04.356Z,17.10
2019-05-10T11:23:00.311Z,17.13
2019-05-10T11:24:01.272Z,17.20
2019-05-10T11:25:04.028Z,17.10
2019-05-10T11:26:01.329Z,17.08
2019-05-10T11:27:01.106Z,17.54
2019-05-10T11:28:01.604Z,17.44
2019-05-10T11:29:01.150Z,17.35
2019-05-10T11:30:00.899Z,17.23
2019-05-10T11:31:01.134Z,16.95
2019-05-10T11:32:12.109Z,17.10
2019-05-10T11:33:00.487Z,17.54
2019-05-10T11:34:01.532Z,17.73
2019-05-10T11:34:59.003Z,17.48
2019-05-10T11:36:03.929Z,17.69
2019-05-10T11:36:59.907Z,17.87
2019-05-10T11:38:01.026Z,18.12
2019-05-10T11:38:58.957Z,17.62
2019-05-10T11:40:01.479Z,17.78
2019-05-10T11:40:58.930Z,17.74
2019-05-10T11:42:05.204Z,17.63
2019-05-10T11:43:01.475Z,17.51
2019-05-10T11:44:07.892Z,17.43
2019-05-10T11:45:00.773Z,17.00
2019-05-10T11:45:58.808Z,16.96
2019-05-10T11:47:01.343Z,17.35
2019-05-10T11:48:01.568Z,17.35
2019-05-10T11:48:58.771Z,17.10
2019-05-10T11:50:03.632Z,16.85
2019-05-10T11:50:59.749Z,16.67
2019-05-10T11:51:59.463Z,16.60
2019-05-10T11:53:00.902Z,16.70
2019-05-10T11:55:01.262Z,16.33
2019-05-10T11:55:58.692Z,16.18
2019-05-10T11:57:06.582Z,15.93
2019-05-10T11:58:03.026Z,15.82
2019-05-10T11:59:02.582Z,15.67
2019-05-10T11:59:58.647Z,15.72
2019-05-10T12:01:00.339Z,15.70
2019-05-10T12:02:02.368Z,15.68
2019-05-10T12:03:08.873Z,15.68
2019-05-10T12:04:04.713Z,15.76
2019-05-10T12:05:03.615Z,15.64
2019-05-10T12:06:06.184Z,16.27
2019-05-10T12:07:01.777Z,16.56
2019-05-10T12:08:01.962Z,16.75
2019-05-10T12:09:02.078Z,16.63
2019-05-10T12:10:07.595Z,16.83
2019-05-10T12:11:12.348Z,16.93
2019-05-10T12:12:03.434Z,17.51
2019-05-10T12:13:08.626Z,17.63
2019-05-10T12:14:02.442Z,17.71
2019-05-10T12:14:58.509Z,17.79
2019-05-10T12:15:58.530Z,17.35
2019-05-10T12:16:58.451Z,17.25
2019-05-10T12:17:59.707Z,17.14
2019-05-10T12:19:06.519Z,18.52
2019-05-10T12:20:02.260Z,19.31
2019-05-10T12:22:03.495Z,19.42
2019-05-10T12:23:03.375Z,19.15
2019-05-10T12:24:10.467Z,18.92
2019-05-10T12:25:20.620Z,18.52
2019-05-10T12:26:04.742Z,16.58
2019-05-10T12:26:05.557Z,18.49
2019-05-10T12:27:13.356Z,19.65
2019-05-10T12:27:17.298Z,20.16
2019-05-10T12:28:01.235Z,20.51
2019-05-10T12:29:02.697Z,20.03
2019-05-10T12:30:00.749Z,20.20
2019-05-10T12:30:58.307Z,19.01
2019-05-10T12:31:58.285Z,18.37
2019-05-10T12:33:05.872Z,17.88
2019-05-10T12:34:02.557Z,17.76
2019-05-10T12:35:01.309Z,17.53
2019-05-10T12:35:58.295Z,17.46
2019-05-10T12:37:03.849Z,17.63
2019-05-10T12:38:01.659Z,17.53
2019-05-10T12:38:58.971Z,17.47
2019-05-10T12:40:06.167Z,17.63
2019-05-10T12:41:01.281Z,17.74
2019-05-10T12:41:58.170Z,17.71
2019-05-10T12:43:00.546Z,17.92
2019-05-10T12:44:04.088Z,17.74
2019-05-10T12:45:01.158Z,17.82
2019-05-10T12:45:58.130Z,17.91
2019-05-10T12:46:58.145Z,17.88
2019-05-10T12:47:58.115Z,17.62
2019-05-10T12:48:58.090Z,17.55
2019-05-10T12:50:01.980Z,17.54
2019-05-10T12:51:05.028Z,17.53
2019-05-10T12:51:59.055Z,17.55
2019-05-10T12:53:13.800Z,17.57
2019-05-10T12:53:59.032Z,17.47
2019-05-10T12:54:58.035Z,16.95
2019-05-10T12:55:58.017Z,16.78